sensor_id;sensor_type;location;lat;lon;timestamp;pressure;altitude;pressure_sealevel;temperature;humidity
46928;BME280;32668;51.306;-0.576;2022-07-29T00:00:42;101065.81;;;16.02;85.57
46928;BME280;32668;51.306;-0.576;2022-07-29T00:03:10;101071.06;;;16.02;86.11
46928;BME280;32668;51.306;-0.576;2022-07-29T00:05:36;101070.19;;;16.02;85.69
46928;BME280;32668;51.306;-0.576;2022-07-29T00:08:01;101063.19;;;16.02;84.76
46928;BME280;32668;51.306;-0.576;2022-07-29T00:10:26;101063.19;;;16.01;85.60
46928;BME280;32668;51.306;-0.576;2022-07-29T00:12:52;101064.00;;;15.98;85.50
46928;BME280;32668;51.306;-0.576;2022-07-29T00:15:17;101060.50;;;15.98;86.27
46928;BME280;32668;51.306;-0.576;2022-07-29T00:17:43;101062.25;;;15.96;85.60
46928;BME280;32668;51.306;-0.576;2022-07-29T00:20:09;101062.25;;;15.96;86.45
46928;BME280;32668;51.306;-0.576;2022-07-29T00:22:37;101068.38;;;15.98;85.18
46928;BME280;32668;51.306;-0.576;2022-07-29T00:25:03;101066.59;;;15.94;86.18
46928;BME280;32668;51.306;-0.576;2022-07-29T00:27:29;101058.69;;;15.89;86.65
46928;BME280;32668;51.306;-0.576;2022-07-29T00:29:54;101063.91;;;15.87;86.09
46928;BME280;32668;51.306;-0.576;2022-07-29T00:32:20;101056.88;;;15.86;86.01
46928;BME280;32668;51.306;-0.576;2022-07-29T00:34:45;101062.97;;;15.84;86.06
46928;BME280;32668;51.306;-0.576;2022-07-29T00:37:29;101061.16;;;15.80;85.95
46928;BME280;32668;51.306;-0.576;2022-07-29T00:39:55;101068.09;;;15.76;87.51
46928;BME280;32668;51.306;-0.576;2022-07-29T00:42:20;101063.66;;;15.70;88.70
46928;BME280;32668;51.306;-0.576;2022-07-29T00:44:45;101061.88;;;15.65;88.76
46928;BME280;32668;51.306;-0.576;2022-07-29T00:47:11;101058.34;;;15.64;89.08
46928;BME280;32668;51.306;-0.576;2022-07-29T00:49:39;101061.81;;;15.62;89.06
46928;BME280;32668;51.306;-0.576;2022-07-29T00:52:05;101060.78;;;15.50;89.79
46928;BME280;32668;51.306;-0.576;2022-07-29T00:54:32;101056.50;;;15.55;89.88
46928;BME280;32668;51.306;-0.576;2022-07-29T00:56:59;101056.41;;;15.48;90.42
46928;BME280;32668;51.306;-0.576;2022-07-29T00:59:26;101056.31;;;15.41;90.55
46928;BME280;32668;51.306;-0.576;2022-07-29T01:01:52;101053.63;;;15.35;91.54
46928;BME280;32668;51.306;-0.576;2022-07-29T01:04:18;101054.47;;;15.34;91.66
46928;BME280;32668;51.306;-0.576;2022-07-29T01:06:43;101057.94;;;15.30;91.79
46928;BME280;32668;51.306;-0.576;2022-07-29T01:09:09;101055.25;;;15.25;92.24
46928;BME280;32668;51.306;-0.576;2022-07-29T01:11:36;101050.94;;;15.29;91.91
46928;BME280;32668;51.306;-0.576;2022-07-29T01:14:03;101047.41;;;15.28;92.04
46928;BME280;32668;51.306;-0.576;2022-07-29T01:16:46;101046.53;;;15.26;92.41
46928;BME280;32668;51.306;-0.576;2022-07-29T01:19:36;101056.19;;;15.31;92.29
46928;BME280;32668;51.306;-0.576;2022-07-29T01:22:39;101053.56;;;15.29;92.72
46928;BME280;32668;51.306;-0.576;2022-07-29T01:25:40;101050.00;;;15.25;92.96
46928;BME280;32668;51.306;-0.576;2022-07-29T01:30:58;101047.34;;;15.22;93.64
46928;BME280;32668;51.306;-0.576;2022-07-29T01:33:26;101044.69;;;15.19;93.72
46928;BME280;32668;51.306;-0.576;2022-07-29T01:36:16;101047.28;;;15.16;93.48
46928;BME280;32668;51.306;-0.576;2022-07-29T01:38:45;101047.22;;;15.15;93.86
46928;BME280;32668;51.306;-0.576;2022-07-29T01:41:16;101042.84;;;15.13;93.88
46928;BME280;32668;51.306;-0.576;2022-07-29T01:43:59;101054.16;;;15.08;94.51
46928;BME280;32668;51.306;-0.576;2022-07-29T01:46:34;101048.84;;;15.06;94.68
46928;BME280;32668;51.306;-0.576;2022-07-29T01:49:09;101054.09;;;15.03;94.70
46928;BME280;32668;51.306;-0.576;2022-07-29T01:51:47;101046.19;;;15.02;94.59
46928;BME280;32668;51.306;-0.576;2022-07-29T01:56:48;101047.94;;;15.03;95.34
46928;BME280;32668;51.306;-0.576;2022-07-29T01:59:17;101047.09;;;15.02;95.56
46928;BME280;32668;51.306;-0.576;2022-07-29T02:01:44;101054.00;;;14.97;95.70
46928;BME280;32668;51.306;-0.576;2022-07-29T02:04:12;101054.78;;;14.91;95.97
46928;BME280;32668;51.306;-0.576;2022-07-29T02:06:38;101056.41;;;14.83;96.45
46928;BME280;32668;51.306;-0.576;2022-07-29T02:09:06;101059.81;;;14.77;96.69
46928;BME280;32668;51.306;-0.576;2022-07-29T02:11:33;101058.00;;;14.73;97.42
46928;BME280;32668;51.306;-0.576;2022-07-29T02:14:00;101057.09;;;14.71;97.54
46928;BME280;32668;51.306;-0.576;2022-07-29T02:16:27;101055.31;;;14.68;97.92
46928;BME280;32668;51.306;-0.576;2022-07-29T02:18:55;101055.16;;;14.61;98.31
46928;BME280;32668;51.306;-0.576;2022-07-29T02:21:25;101049.06;;;14.60;98.61
46928;BME280;32668;51.306;-0.576;2022-07-29T02:23:52;101052.56;;;14.62;98.80
46928;BME280;32668;51.306;-0.576;2022-07-29T02:26:23;101050.81;;;14.61;98.80
46928;BME280;32668;51.306;-0.576;2022-07-29T02:28:50;101044.69;;;14.61;99.24
46928;BME280;32668;51.306;-0.576;2022-07-29T02:31:18;101051.66;;;14.60;99.26
46928;BME280;32668;51.306;-0.576;2022-07-29T02:33:47;101051.66;;;14.60;99.55
46928;BME280;32668;51.306;-0.576;2022-07-29T02:36:14;101051.63;;;14.59;99.92
46928;BME280;32668;51.306;-0.576;2022-07-29T02:38:42;101049.84;;;14.58;100.00
46928;BME280;32668;51.306;-0.576;2022-07-29T02:41:28;101049.84;;;14.56;100.00
46928;BME280;32668;51.306;-0.576;2022-07-29T02:43:56;101053.31;;;14.55;100.00
46928;BME280;32668;51.306;-0.576;2022-07-29T02:46:33;101059.38;;;14.51;100.00
46928;BME280;32668;51.306;-0.576;2022-07-29T02:49:35;101050.59;;;14.47;100.00
46928;BME280;32668;51.306;-0.576;2022-07-29T02:52:04;101045.31;;;14.46;100.00
46928;BME280;32668;51.306;-0.576;2022-07-29T02:54:51;101050.53;;;14.44;100.00
46928;BME280;32668;51.306;-0.576;2022-07-29T02:57:22;101043.59;;;14.46;100.00
46928;BME280;32668;51.306;-0.576;2022-07-29T02:59:57;101054.97;;;14.48;100.00
46928;BME280;32668;51.306;-0.576;2022-07-29T03:02:25;101050.59;;;14.49;100.00
46928;BME280;32668;51.306;-0.576;2022-07-29T03:04:52;101053.22;;;14.50;100.00
46928;BME280;32668;51.306;-0.576;2022-07-29T03:07:20;101048.84;;;14.48;100.00
46928;BME280;32668;51.306;-0.576;2022-07-29T03:09:47;101047.97;;;14.47;100.00
46928;BME280;32668;51.306;-0.576;2022-07-29T03:12:13;101054.13;;;14.49;100.00
46928;BME280;32668;51.306;-0.576;2022-07-29T03:14:39;101053.28;;;14.52;100.00
46928;BME280;32668;51.306;-0.576;2022-07-29T03:17:05;101058.53;;;14.53;100.00
46928;BME280;32668;51.306;-0.576;2022-07-29T03:19:32;101055.94;;;14.55;100.00
46928;BME280;32668;51.306;-0.576;2022-07-29T03:21:59;101052.47;;;14.58;100.00
46928;BME280;32668;51.306;-0.576;2022-07-29T03:24:26;101048.16;;;14.60;100.00
46928;BME280;32668;51.306;-0.576;2022-07-29T03:26:52;101049.91;;;14.61;100.00
46928;BME280;32668;51.306;-0.576;2022-07-29T03:29:17;101053.44;;;14.63;100.00
46928;BME280;32668;51.306;-0.576;2022-07-29T03:31:43;101043.81;;;14.62;100.00
46928;BME280;32668;51.306;-0.576;2022-07-29T03:34:08;101049.09;;;14.63;100.00
46928;BME280;32668;51.306;-0.576;2022-07-29T03:36:33;101060.53;;;14.68;100.00
46928;BME280;32668;51.306;-0.576;2022-07-29T03:39:00;101048.34;;;14.69;100.00
46928;BME280;32668;51.306;-0.576;2022-07-29T03:41:27;101053.50;;;14.66;100.00
46928;BME280;32668;51.306;-0.576;2022-07-29T03:43:53;101056.97;;;14.65;100.00
46928;BME280;32668;51.306;-0.576;2022-07-29T03:46:21;101057.78;;;14.61;100.00
46928;BME280;32668;51.306;-0.576;2022-07-29T03:48:50;101062.16;;;14.60;100.00
46928;BME280;32668;51.306;-0.576;2022-07-29T03:51:17;101056.91;;;14.62;100.00
46928;BME280;32668;51.306;-0.576;2022-07-29T03:53:44;101055.16;;;14.61;100.00
46928;BME280;32668;51.306;-0.576;2022-07-29T03:56:09;101059.47;;;14.57;100.00
46928;BME280;32668;51.306;-0.576;2022-07-29T03:58:35;101054.19;;;14.56;100.00
46928;BME280;32668;51.306;-0.576;2022-07-29T04:01:01;101062.84;;;14.51;100.00
46928;BME280;32668;51.306;-0.576;2022-07-29T04:03:27;101064.53;;;14.48;100.00
46928;BME280;32668;51.306;-0.576;2022-07-29T04:06:03;101064.50;;;14.45;100.00
46928;BME280;32668;51.306;-0.576;2022-07-29T04:08:31;101059.19;;;14.40;100.00
46928;BME280;32668;51.306;-0.576;2022-07-29T04:10:57;101065.22;;;14.36;100.00
46928;BME280;32668;51.306;-0.576;2022-07-29T04:13:22;101065.16;;;14.33;100.00
46928;BME280;32668;51.306;-0.576;2022-07-29T04:15:48;101076.50;;;14.32;100.00
46928;BME280;32668;51.306;-0.576;2022-07-29T04:18:13;101076.50;;;14.32;100.00
46928;BME280;32668;51.306;-0.576;2022-07-29T04:20:38;101072.16;;;14.32;100.00
46928;BME280;32668;51.306;-0.576;2022-07-29T04:23:04;101066.94;;;14.34;100.00
46928;BME280;32668;51.306;-0.576;2022-07-29T04:25:29;101067.84;;;14.37;100.00
46928;BME280;32668;51.306;-0.576;2022-07-29T04:27:54;101063.53;;;14.39;100.00
46928;BME280;32668;51.306;-0.576;2022-07-29T04:30:26;101067.97;;;14.44;100.00
46928;BME280;32668;51.306;-0.576;2022-07-29T04:32:52;101068.91;;;14.47;100.00
46928;BME280;32668;51.306;-0.576;2022-07-29T04:35:21;101067.22;;;14.49;100.00
46928;BME280;32668;51.306;-0.576;2022-07-29T04:37:46;101074.13;;;14.46;100.00
46928;BME280;32668;51.306;-0.576;2022-07-29T04:40:12;101070.59;;;14.44;100.00
46928;BME280;32668;51.306;-0.576;2022-07-29T04:42:38;101070.63;;;14.45;100.00
46928;BME280;32668;51.306;-0.576;2022-07-29T04:45:04;101070.63;;;14.45;100.00
46928;BME280;32668;51.306;-0.576;2022-07-29T04:47:30;101066.31;;;14.50;100.00
46928;BME280;32668;51.306;-0.576;2022-07-29T04:49:55;101064.59;;;14.51;100.00
46928;BME280;32668;51.306;-0.576;2022-07-29T04:52:21;101060.22;;;14.48;100.00
46928;BME280;32668;51.306;-0.576;2022-07-29T04:54:47;101056.75;;;14.51;100.00
46928;BME280;32668;51.306;-0.576;2022-07-29T04:57:12;101056.00;;;14.58;100.00
46928;BME280;32668;51.306;-0.576;2022-07-29T04:59:38;101067.34;;;14.59;100.00
46928;BME280;32668;51.306;-0.576;2022-07-29T05:02:03;101064.72;;;14.59;99.69
46928;BME280;32668;51.306;-0.576;2022-07-29T05:04:28;101069.94;;;14.57;100.00
46928;BME280;32668;51.306;-0.576;2022-07-29T05:06:54;101065.53;;;14.54;100.00
46928;BME280;32668;51.306;-0.576;2022-07-29T05:09:19;101064.53;;;14.48;100.00
46928;BME280;32668;51.306;-0.576;2022-07-29T05:11:45;101061.81;;;14.40;100.00
46928;BME280;32668;51.306;-0.576;2022-07-29T05:14:10;101068.75;;;14.38;100.00
46928;BME280;32668;51.306;-0.576;2022-07-29T05:16:35;101067.00;;;14.38;100.00
46928;BME280;32668;51.306;-0.576;2022-07-29T05:19:01;101074.03;;;14.41;100.00
46928;BME280;32668;51.306;-0.576;2022-07-29T05:21:26;101075.00;;;14.46;100.00
46928;BME280;32668;51.306;-0.576;2022-07-29T05:23:52;101072.47;;;14.52;100.00
46928;BME280;32668;51.306;-0.576;2022-07-29T05:26:17;101080.44;;;14.57;100.00
46928;BME280;32668;51.306;-0.576;2022-07-29T05:28:43;101077.00;;;14.63;100.00
46928;BME280;32668;51.306;-0.576;2022-07-29T05:31:08;101074.38;;;14.61;100.00
46928;BME280;32668;51.306;-0.576;2022-07-29T05:33:33;101081.38;;;14.62;100.00
46928;BME280;32668;51.306;-0.576;2022-07-29T05:35:59;101077.94;;;14.65;100.00
46928;BME280;32668;51.306;-0.576;2022-07-29T05:38:24;101074.47;;;14.67;100.00
46928;BME280;32668;51.306;-0.576;2022-07-29T05:40:50;101075.44;;;14.71;100.00
46928;BME280;32668;51.306;-0.576;2022-07-29T05:43:15;101083.38;;;14.76;100.00
46928;BME280;32668;51.306;-0.576;2022-07-29T05:45:40;101078.25;;;14.83;100.00
46928;BME280;32668;51.306;-0.576;2022-07-29T05:48:06;101081.75;;;14.86;100.00
46928;BME280;32668;51.306;-0.576;2022-07-29T05:50:31;101075.75;;;14.91;100.00
46928;BME280;32668;51.306;-0.576;2022-07-29T05:52:57;101085.53;;;15.03;100.00
46928;BME280;32668;51.306;-0.576;2022-07-29T05:55:22;101081.31;;;15.13;100.00
46928;BME280;32668;51.306;-0.576;2022-07-29T05:57:47;101084.91;;;15.21;100.00
46928;BME280;32668;51.306;-0.576;2022-07-29T06:00:14;101086.75;;;15.28;100.00
46928;BME280;32668;51.306;-0.576;2022-07-29T06:02:39;101092.13;;;15.38;100.00
46928;BME280;32668;51.306;-0.576;2022-07-29T06:05:05;101104.41;;;15.40;100.00
46928;BME280;32668;51.306;-0.576;2022-07-29T06:07:31;101106.19;;;15.45;100.00
46928;BME280;32668;51.306;-0.576;2022-07-29T06:09:57;101097.50;;;15.47;100.00
46928;BME280;32668;51.306;-0.576;2022-07-29T06:12:23;101107.19;;;15.54;100.00
46928;BME280;32668;51.306;-0.576;2022-07-29T06:14:48;101102.94;;;15.61;100.00
46928;BME280;32668;51.306;-0.576;2022-07-29T06:17:15;101107.38;;;15.68;100.00
46928;BME280;32668;51.306;-0.576;2022-07-29T06:19:41;101106.63;;;15.79;100.00
46928;BME280;32668;51.306;-0.576;2022-07-29T06:22:06;101106.78;;;15.88;100.00
46928;BME280;32668;51.306;-0.576;2022-07-29T06:24:32;101116.44;;;15.91;100.00
46928;BME280;32668;51.306;-0.576;2022-07-29T06:26:57;101105.94;;;15.92;100.00
46928;BME280;32668;51.306;-0.576;2022-07-29T06:29:23;101107.81;;;16.02;99.99
46928;BME280;32668;51.306;-0.576;2022-07-29T06:31:48;101113.09;;;16.07;99.88
46928;BME280;32668;51.306;-0.576;2022-07-29T06:34:14;101110.53;;;16.13;99.36
46928;BME280;32668;51.306;-0.576;2022-07-29T06:36:40;101114.13;;;16.22;98.72
46928;BME280;32668;51.306;-0.576;2022-07-29T06:39:06;101111.47;;;16.20;99.04
46928;BME280;32668;51.306;-0.576;2022-07-29T06:41:32;101104.47;;;16.16;99.92
46928;BME280;32668;51.306;-0.576;2022-07-29T06:43:57;101107.16;;;16.24;99.52
46928;BME280;32668;51.306;-0.576;2022-07-29T06:46:24;101116.00;;;16.35;99.12
46928;BME280;32668;51.306;-0.576;2022-07-29T06:48:50;101112.59;;;16.47;98.47
46928;BME280;32668;51.306;-0.576;2022-07-29T06:51:16;101119.72;;;16.57;97.91
46928;BME280;32668;51.306;-0.576;2022-07-29T06:53:42;101121.47;;;16.54;97.82
46928;BME280;32668;51.306;-0.576;2022-07-29T06:56:07;101124.13;;;16.58;97.48
46928;BME280;32668;51.306;-0.576;2022-07-29T06:58:38;101121.59;;;16.71;97.30
46928;BME280;32668;51.306;-0.576;2022-07-29T07:01:05;101124.34;;;16.86;96.18
46928;BME280;32668;51.306;-0.576;2022-07-29T07:03:31;101122.72;;;17.01;94.85
46928;BME280;32668;51.306;-0.576;2022-07-29T07:05:57;101122.78;;;17.10;94.13
46928;BME280;32668;51.306;-0.576;2022-07-29T07:08:22;101131.59;;;17.20;93.81
46928;BME280;32668;51.306;-0.576;2022-07-29T07:10:49;101119.41;;;17.27;93.02
46928;BME280;32668;51.306;-0.576;2022-07-29T07:13:15;101131.63;;;17.23;93.23
46928;BME280;32668;51.306;-0.576;2022-07-29T07:15:42;101127.25;;;17.20;93.48
46928;BME280;32668;51.306;-0.576;2022-07-29T07:18:08;101126.47;;;17.35;93.05
46928;BME280;32668;51.306;-0.576;2022-07-29T07:20:34;101123.06;;;17.58;92.28
46928;BME280;32668;51.306;-0.576;2022-07-29T07:22:59;101125.84;;;17.97;90.99
46928;BME280;32668;51.306;-0.576;2022-07-29T07:25:25;101127.72;;;18.48;86.27
46928;BME280;32668;51.306;-0.576;2022-07-29T07:27:50;101126.81;;;18.32;86.32
46928;BME280;32668;51.306;-0.576;2022-07-29T07:30:16;101122.47;;;18.38;86.71
46928;BME280;32668;51.306;-0.576;2022-07-29T07:32:41;101133.03;;;18.60;86.49
46928;BME280;32668;51.306;-0.576;2022-07-29T07:35:08;101126.84;;;18.74;85.06
46928;BME280;32668;51.306;-0.576;2022-07-29T07:37:34;101123.34;;;18.70;85.81
46928;BME280;32668;51.306;-0.576;2022-07-29T07:40:01;101133.00;;;18.62;85.62
46928;BME280;32668;51.306;-0.576;2022-07-29T07:42:26;101121.59;;;18.91;84.43
46928;BME280;32668;51.306;-0.576;2022-07-29T07:44:52;101129.50;;;19.14;83.59
46928;BME280;32668;51.306;-0.576;2022-07-29T07:47:18;101124.25;;;19.00;84.15
46928;BME280;32668;51.306;-0.576;2022-07-29T07:49:52;101128.63;;;19.09;84.43
46928;BME280;32668;51.306;-0.576;2022-07-29T07:52:19;101129.50;;;19.15;84.27
46928;BME280;32668;51.306;-0.576;2022-07-29T07:54:45;101132.09;;;19.26;83.17
46928;BME280;32668;51.306;-0.576;2022-07-29T07:57:11;101135.66;;;19.16;83.01
46928;BME280;32668;51.306;-0.576;2022-07-29T07:59:37;101124.22;;;19.12;83.43
46928;BME280;32668;51.306;-0.576;2022-07-29T08:02:03;101135.69;;;19.05;84.45
46928;BME280;32668;51.306;-0.576;2022-07-29T08:04:29;101139.13;;;19.27;84.13
46928;BME280;32668;51.306;-0.576;2022-07-29T08:06:55;101133.84;;;19.30;83.09
46928;BME280;32668;51.306;-0.576;2022-07-29T08:09:22;101133.03;;;19.13;83.41
46928;BME280;32668;51.306;-0.576;2022-07-29T08:11:47;101133.03;;;19.08;83.86
46928;BME280;32668;51.306;-0.576;2022-07-29T08:14:13;101134.78;;;19.15;83.32
46928;BME280;32668;51.306;-0.576;2022-07-29T08:16:39;101143.53;;;19.25;83.56
46928;BME280;32668;51.306;-0.576;2022-07-29T08:19:05;101146.09;;;19.56;80.69
46928;BME280;32668;51.306;-0.576;2022-07-29T08:21:31;101139.84;;;19.84;80.05
46928;BME280;32668;51.306;-0.576;2022-07-29T08:23:56;101146.00;;;19.92;78.07
46928;BME280;32668;51.306;-0.576;2022-07-29T08:26:41;101145.13;;;19.81;74.93
46928;BME280;32668;51.306;-0.576;2022-07-29T08:29:07;101152.22;;;19.68;78.38
46928;BME280;32668;51.306;-0.576;2022-07-29T08:31:33;101143.38;;;19.80;76.16
46928;BME280;32668;51.306;-0.576;2022-07-29T08:33:58;101135.44;;;19.81;67.28
46928;BME280;32668;51.306;-0.576;2022-07-29T08:36:25;101143.44;;;19.66;67.21
46928;BME280;32668;51.306;-0.576;2022-07-29T08:38:51;101140.81;;;19.56;67.04
46928;BME280;32668;51.306;-0.576;2022-07-29T08:41:17;101143.50;;;19.50;63.46
46928;BME280;32668;51.306;-0.576;2022-07-29T08:43:44;101139.94;;;19.57;63.49
46928;BME280;32668;51.306;-0.576;2022-07-29T08:46:10;101131.97;;;19.70;61.19
46928;BME280;32668;51.306;-0.576;2022-07-29T08:48:35;101122.22;;;19.86;62.98
46928;BME280;32668;51.306;-0.576;2022-07-29T08:51:02;101128.38;;;19.86;57.43
46928;BME280;32668;51.306;-0.576;2022-07-29T08:53:28;101128.38;;;19.83;59.44
46928;BME280;32668;51.306;-0.576;2022-07-29T08:55:55;101124.88;;;19.92;58.97
46928;BME280;32668;51.306;-0.576;2022-07-29T08:58:22;101124.91;;;19.89;59.62
46928;BME280;32668;51.306;-0.576;2022-07-29T09:00:53;101129.25;;;19.96;60.43
46928;BME280;32668;51.306;-0.576;2022-07-29T09:03:20;101123.00;;;20.11;58.87
46928;BME280;32668;51.306;-0.576;2022-07-29T09:05:48;101130.84;;;20.22;57.88
46928;BME280;32668;51.306;-0.576;2022-07-29T09:08:15;101124.69;;;20.21;57.76
46928;BME280;32668;51.306;-0.576;2022-07-29T09:10:40;101125.53;;;20.28;58.45
46928;BME280;32668;51.306;-0.576;2022-07-29T09:13:06;101123.84;;;20.19;57.86
46928;BME280;32668;51.306;-0.576;2022-07-29T09:15:32;101125.59;;;20.20;59.16
46928;BME280;32668;51.306;-0.576;2022-07-29T09:17:57;101122.00;;;20.31;59.34
46928;BME280;32668;51.306;-0.576;2022-07-29T09:20:26;101119.25;;;20.48;58.12
46928;BME280;32668;51.306;-0.576;2022-07-29T09:23:12;101122.69;;;20.61;57.47
46928;BME280;32668;51.306;-0.576;2022-07-29T09:25:40;101118.22;;;20.68;57.97
46928;BME280;32668;51.306;-0.576;2022-07-29T09:28:14;101115.56;;;20.68;57.13
46928;BME280;32668;51.306;-0.576;2022-07-29T09:30:55;101120.75;;;20.80;57.94
46928;BME280;32668;51.306;-0.576;2022-07-29T09:33:22;101119.78;;;20.90;58.13
46928;BME280;32668;51.306;-0.576;2022-07-29T09:38:30;101112.69;;;20.94;56.37
46928;BME280;32668;51.306;-0.576;2022-07-29T09:40:57;101115.31;;;20.99;56.88
46928;BME280;32668;51.306;-0.576;2022-07-29T09:43:22;101112.63;;;21.03;56.70
46928;BME280;32668;51.306;-0.576;2022-07-29T09:45:48;101115.44;;;20.88;51.86
46928;BME280;32668;51.306;-0.576;2022-07-29T09:48:18;101120.63;;;20.94;51.89
46928;BME280;32668;51.306;-0.576;2022-07-29T09:50:46;101124.19;;;20.91;50.62
46928;BME280;32668;51.306;-0.576;2022-07-29T09:53:30;101127.66;;;20.98;50.51
46928;BME280;32668;51.306;-0.576;2022-07-29T09:55:56;101121.53;;;20.94;50.59
46928;BME280;32668;51.306;-0.576;2022-07-29T09:58:22;101122.41;;;20.92;49.46
46928;BME280;32668;51.306;-0.576;2022-07-29T10:00:49;101121.53;;;20.94;47.07
46928;BME280;32668;51.306;-0.576;2022-07-29T10:03:15;101121.47;;;20.99;49.24
46928;BME280;32668;51.306;-0.576;2022-07-29T10:05:41;101113.28;;;21.24;48.52
46928;BME280;32668;51.306;-0.576;2022-07-29T10:08:08;101114.03;;;21.34;48.17
46928;BME280;32668;51.306;-0.576;2022-07-29T10:10:39;101117.69;;;21.27;49.13
46928;BME280;32668;51.306;-0.576;2022-07-29T10:13:14;101106.31;;;21.17;50.41
46928;BME280;32668;51.306;-0.576;2022-07-29T10:15:41;101110.59;;;21.27;51.10
46928;BME280;32668;51.306;-0.576;2022-07-29T10:18:11;101117.69;;;21.25;49.66
46928;BME280;32668;51.306;-0.576;2022-07-29T10:20:37;101108.00;;;21.21;49.11
46928;BME280;32668;51.306;-0.576;2022-07-29T10:23:03;101110.56;;;21.30;49.84
46928;BME280;32668;51.306;-0.576;2022-07-29T10:25:29;101109.63;;;21.37;50.27
46928;BME280;32668;51.306;-0.576;2022-07-29T10:27:55;101105.00;;;21.52;50.10
46928;BME280;32668;51.306;-0.576;2022-07-29T10:30:22;101105.88;;;21.54;50.10
46928;BME280;32668;51.306;-0.576;2022-07-29T10:44:21;101106.22;;;21.98;47.35
46928;BME280;32668;51.306;-0.576;2022-07-29T10:46:48;101116.75;;;22.03;47.64
46928;BME280;32668;51.306;-0.576;2022-07-29T10:49:24;101115.72;;;22.13;47.35
46928;BME280;32668;51.306;-0.576;2022-07-29T10:52:08;101113.16;;;22.07;46.60
46928;BME280;32668;51.306;-0.576;2022-07-29T10:57:21;101105.13;;;22.13;45.28
46928;BME280;32668;51.306;-0.576;2022-07-29T11:02:46;101103.03;;;22.34;44.98
46928;BME280;32668;51.306;-0.576;2022-07-29T11:05:19;101100.56;;;22.23;44.15
46928;BME280;32668;51.306;-0.576;2022-07-29T11:10:42;101104.09;;;22.23;44.86
46928;BME280;32668;51.306;-0.576;2022-07-29T11:13:08;101106.56;;;22.34;44.60
46928;BME280;32668;51.306;-0.576;2022-07-29T11:16:02;101115.34;;;22.39;44.16
46928;BME280;32668;51.306;-0.576;2022-07-29T11:18:28;101111.69;;;22.48;45.00
46928;BME280;32668;51.306;-0.576;2022-07-29T11:20:53;101104.47;;;22.58;44.04
46928;BME280;32668;51.306;-0.576;2022-07-29T11:23:34;101104.38;;;22.64;43.20
46928;BME280;32668;51.306;-0.576;2022-07-29T11:28:49;101117.69;;;22.61;43.57
46928;BME280;32668;51.306;-0.576;2022-07-29T11:31:16;101111.47;;;22.62;43.21
46928;BME280;32668;51.306;-0.576;2022-07-29T11:33:44;101106.13;;;22.64;43.67
46928;BME280;32668;51.306;-0.576;2022-07-29T11:36:14;101103.41;;;22.68;43.19
46928;BME280;32668;51.306;-0.576;2022-07-29T11:38:40;101106.81;;;22.75;43.05
46928;BME280;32668;51.306;-0.576;2022-07-29T11:43:55;101103.41;;;22.68;43.30
46928;BME280;32668;51.306;-0.576;2022-07-29T11:46:45;101100.38;;;22.88;43.57
46928;BME280;32668;51.306;-0.576;2022-07-29T11:49:20;101104.44;;;23.10;42.17
46928;BME280;32668;51.306;-0.576;2022-07-29T11:51:53;101107.47;;;23.38;41.84
46928;BME280;32668;51.306;-0.576;2022-07-29T11:54:32;101095.72;;;23.48;41.61
46928;BME280;32668;51.306;-0.576;2022-07-29T11:56:58;101100.75;;;23.62;41.39
46928;BME280;32668;51.306;-0.576;2022-07-29T11:59:24;101102.03;;;23.85;41.41
46928;BME280;32668;51.306;-0.576;2022-07-29T12:01:54;101106.22;;;23.97;40.57
46928;BME280;32668;51.306;-0.576;2022-07-29T12:04:20;101098.63;;;24.21;40.67
46928;BME280;32668;51.306;-0.576;2022-07-29T12:06:52;101093.19;;;24.62;40.13
46928;BME280;32668;51.306;-0.576;2022-07-29T12:09:18;101092.22;;;24.66;39.98
46928;BME280;32668;51.306;-0.576;2022-07-29T12:11:45;101087.81;;;24.98;39.11
46928;BME280;32668;51.306;-0.576;2022-07-29T12:14:31;101096.47;;;25.38;38.14
46928;BME280;32668;51.306;-0.576;2022-07-29T12:16:58;101102.09;;;25.60;38.10
46928;BME280;32668;51.306;-0.576;2022-07-29T12:19:25;101087.66;;;25.97;38.58
46928;BME280;32668;51.306;-0.576;2022-07-29T12:21:52;101091.66;;;26.11;37.21
46928;BME280;32668;51.306;-0.576;2022-07-29T12:24:18;101093.22;;;26.20;37.30
46928;BME280;32668;51.306;-0.576;2022-07-29T12:26:57;101085.06;;;26.51;36.12
46928;BME280;32668;51.306;-0.576;2022-07-29T12:29:23;101084.16;;;26.52;34.97
46928;BME280;32668;51.306;-0.576;2022-07-29T12:31:52;101077.00;;;26.26;35.28
46928;BME280;32668;51.306;-0.576;2022-07-29T12:34:26;101082.75;;;25.53;36.98
46928;BME280;32668;51.306;-0.576;2022-07-29T12:36:53;101085.50;;;25.19;38.37
46928;BME280;32668;51.306;-0.576;2022-07-29T12:39:20;101079.66;;;24.71;39.38
46928;BME280;32668;51.306;-0.576;2022-07-29T13:55:52;101044.75;;;26.86;34.02
46928;BME280;32668;51.306;-0.576;2022-07-29T13:58:18;101045.66;;;27.10;34.42
46928;BME280;32668;51.306;-0.576;2022-07-29T14:00:43;101045.06;;;27.51;34.15
46928;BME280;32668;51.306;-0.576;2022-07-29T14:03:09;101051.38;;;27.48;33.03
46928;BME280;32668;51.306;-0.576;2022-07-29T14:05:35;101057.25;;;27.58;33.64
46928;BME280;32668;51.306;-0.576;2022-07-29T14:08:00;101055.56;;;27.56;33.44
46928;BME280;32668;51.306;-0.576;2022-07-29T14:10:26;101056.88;;;27.67;32.33
46928;BME280;32668;51.306;-0.576;2022-07-29T14:12:51;101053.66;;;27.59;32.71
46928;BME280;32668;51.306;-0.576;2022-07-29T14:15:16;101048.47;;;27.55;32.79
46928;BME280;32668;51.306;-0.576;2022-07-29T14:17:42;101047.69;;;27.27;32.53
46928;BME280;32668;51.306;-0.576;2022-07-29T14:20:08;101041.69;;;26.97;33.23
46928;BME280;32668;51.306;-0.576;2022-07-29T14:22:33;101049.97;;;26.89;33.45
46928;BME280;32668;51.306;-0.576;2022-07-29T14:24:58;101057.06;;;26.90;33.55
46928;BME280;32668;51.306;-0.576;2022-07-29T14:27:24;101054.13;;;26.71;33.68
46928;BME280;32668;51.306;-0.576;2022-07-29T14:29:49;101053.94;;;26.77;34.01